sensor_id;sensor_type;location;lat;lon;timestamp;pressure;altitude;pressure_sealevel;temperature;humidity
73101;BME280;61288;53.446;-2.266;2022-10-31T00:00:48;101017.69;;;10.81;89.18
73101;BME280;61288;53.446;-2.266;2022-10-31T00:03:13;101023.69;;;10.83;89.07
73101;BME280;61288;53.446;-2.266;2022-10-31T00:05:43;101030.59;;;10.82;89.09
73101;BME280;61288;53.446;-2.266;2022-10-31T00:08:09;101021.97;;;10.82;89.42
73101;BME280;61288;53.446;-2.266;2022-10-31T00:10:38;101017.63;;;10.82;89.38
73101;BME280;61288;53.446;-2.266;2022-10-31T00:13:04;101019.41;;;10.82;89.41
73101;BME280;61288;53.446;-2.266;2022-10-31T00:15:29;101026.25;;;10.83;89.50
73101;BME280;61288;53.446;-2.266;2022-10-31T00:17:55;101027.06;;;10.85;89.47
73101;BME280;61288;53.446;-2.266;2022-10-31T00:20:20;101026.06;;;10.88;89.43
73101;BME280;61288;53.446;-2.266;2022-10-31T00:22:46;101027.72;;;10.90;89.25
73101;BME280;61288;53.446;-2.266;2022-10-31T00:25:12;101028.47;;;10.94;89.11
73101;BME280;61288;53.446;-2.266;2022-10-31T00:27:39;101030.94;;;10.97;88.94
73101;BME280;61288;53.446;-2.266;2022-10-31T00:30:05;101026.56;;;10.99;89.00
73101;BME280;61288;53.446;-2.266;2022-10-31T00:32:31;101032.44;;;11.03;88.74
73101;BME280;61288;53.446;-2.266;2022-10-31T00:34:56;101029.81;;;11.04;88.94
73101;BME280;61288;53.446;-2.266;2022-10-31T00:37:22;101018.53;;;11.05;88.66
73101;BME280;61288;53.446;-2.266;2022-10-31T00:39:47;101026.31;;;11.05;88.75
73101;BME280;61288;53.446;-2.266;2022-10-31T00:42:15;101021.97;;;11.06;88.72
73101;BME280;61288;53.446;-2.266;2022-10-31T00:44:41;101032.22;;;11.09;88.64
73101;BME280;61288;53.446;-2.266;2022-10-31T00:47:06;101033.91;;;11.10;88.60
73101;BME280;61288;53.446;-2.266;2022-10-31T00:49:32;101028.72;;;11.10;88.45
73101;BME280;61288;53.446;-2.266;2022-10-31T00:51:57;101021.84;;;11.09;88.70
73101;BME280;61288;53.446;-2.266;2022-10-31T00:54:23;101032.28;;;11.07;88.80
73101;BME280;61288;53.446;-2.266;2022-10-31T00:56:49;101029.69;;;11.07;88.68
73101;BME280;61288;53.446;-2.266;2022-10-31T00:59:15;101034.88;;;11.07;88.53
73101;BME280;61288;53.446;-2.266;2022-10-31T01:01:40;101036.63;;;11.07;88.76
73101;BME280;61288;53.446;-2.266;2022-10-31T01:04:06;101039.22;;;11.07;88.80
73101;BME280;61288;53.446;-2.266;2022-10-31T01:06:31;101045.25;;;11.07;88.65
73101;BME280;61288;53.446;-2.266;2022-10-31T01:08:56;101036.50;;;11.10;88.62
73101;BME280;61288;53.446;-2.266;2022-10-31T01:11:23;101035.63;;;11.11;88.25
73101;BME280;61288;53.446;-2.266;2022-10-31T01:13:53;101033.03;;;11.11;88.28
73101;BME280;61288;53.446;-2.266;2022-10-31T01:16:20;101032.16;;;11.10;88.31
73101;BME280;61288;53.446;-2.266;2022-10-31T01:18:46;101033.97;;;11.08;88.27
73101;BME280;61288;53.446;-2.266;2022-10-31T01:21:20;101034.03;;;11.07;88.52
73101;BME280;61288;53.446;-2.266;2022-10-31T01:23:46;101031.44;;;11.07;88.12
73101;BME280;61288;53.446;-2.266;2022-10-31T01:26:13;101040.06;;;11.07;87.93
73101;BME280;61288;53.446;-2.266;2022-10-31T01:28:48;101029.69;;;11.07;88.00
73101;BME280;61288;53.446;-2.266;2022-10-31T01:31:14;101040.13;;;11.06;87.89
73101;BME280;61288;53.446;-2.266;2022-10-31T01:33:41;101042.78;;;11.04;87.97
73101;BME280;61288;53.446;-2.266;2022-10-31T01:36:37;101042.78;;;11.04;88.16
73101;BME280;61288;53.446;-2.266;2022-10-31T01:39:05;101043.69;;;11.03;87.90
73101;BME280;61288;53.446;-2.266;2022-10-31T01:41:33;101048.78;;;11.05;87.95
73101;BME280;61288;53.446;-2.266;2022-10-31T01:44:02;101047.19;;;11.02;87.67
73101;BME280;61288;53.446;-2.266;2022-10-31T01:46:31;101053.31;;;11.00;88.02
73101;BME280;61288;53.446;-2.266;2022-10-31T01:49:01;101052.53;;;10.97;88.30
73101;BME280;61288;53.446;-2.266;2022-10-31T01:51:31;101058.59;;;10.96;88.01
73101;BME280;61288;53.446;-2.266;2022-10-31T01:54:01;101057.78;;;10.96;87.87
73101;BME280;61288;53.446;-2.266;2022-10-31T01:56:30;101055.28;;;10.93;88.16
73101;BME280;61288;53.446;-2.266;2022-10-31T01:58:58;101053.69;;;10.89;88.29
73101;BME280;61288;53.446;-2.266;2022-10-31T02:01:25;101057.25;;;10.86;88.22
73101;BME280;61288;53.446;-2.266;2022-10-31T02:03:51;101062.44;;;10.86;88.43
73101;BME280;61288;53.446;-2.266;2022-10-31T02:06:32;101060.78;;;10.83;88.43
73101;BME280;61288;53.446;-2.266;2022-10-31T02:09:04;101064.28;;;10.82;88.45
73101;BME280;61288;53.446;-2.266;2022-10-31T02:11:30;101062.66;;;10.80;88.75
73101;BME280;61288;53.446;-2.266;2022-10-31T02:13:58;101062.72;;;10.78;88.86
73101;BME280;61288;53.446;-2.266;2022-10-31T02:16:25;101056.75;;;10.76;88.76
73101;BME280;61288;53.446;-2.266;2022-10-31T02:18:51;101058.47;;;10.76;89.04
73101;BME280;61288;53.446;-2.266;2022-10-31T02:26:57;101051.09;;;10.65;89.74
73101;BME280;61288;53.446;-2.266;2022-10-31T02:29:53;101057.19;;;10.64;89.69
73101;BME280;61288;53.446;-2.266;2022-10-31T02:40:14;101052.13;;;10.61;89.94
73101;BME280;61288;53.446;-2.266;2022-10-31T02:45:41;101046.97;;;10.59;89.75
73101;BME280;61288;53.446;-2.266;2022-10-31T02:48:14;101042.72;;;10.57;90.16
73101;BME280;61288;53.446;-2.266;2022-10-31T02:50:43;101041.03;;;10.55;90.22
73101;BME280;61288;53.446;-2.266;2022-10-31T02:53:14;101044.72;;;10.50;90.26
73101;BME280;61288;53.446;-2.266;2022-10-31T02:58:52;101028.56;;;10.42;90.23
73101;BME280;61288;53.446;-2.266;2022-10-31T03:01:42;101034.78;;;10.36;90.93
73101;BME280;61288;53.446;-2.266;2022-10-31T03:04:19;101031.44;;;10.32;90.90
73101;BME280;61288;53.446;-2.266;2022-10-31T03:15:59;101025.09;;;10.16;91.70
73101;BME280;61288;53.446;-2.266;2022-10-31T03:18:34;101026.97;;;10.10;91.87
73101;BME280;61288;53.446;-2.266;2022-10-31T03:21:07;101023.59;;;10.08;92.10
73101;BME280;61288;53.446;-2.266;2022-10-31T03:23:36;101024.50;;;10.07;92.41
73101;BME280;61288;53.446;-2.266;2022-10-31T03:26:05;101024.50;;;10.07;92.70
73101;BME280;61288;53.446;-2.266;2022-10-31T03:28:41;101023.59;;;10.08;92.97
73101;BME280;61288;53.446;-2.266;2022-10-31T03:31:09;101020.97;;;10.10;92.76
73101;BME280;61288;53.446;-2.266;2022-10-31T03:33:39;101020.97;;;10.10;92.78
73101;BME280;61288;53.446;-2.266;2022-10-31T03:36:08;101017.53;;;10.09;92.62
73101;BME280;61288;53.446;-2.266;2022-10-31T03:38:36;101021.00;;;10.08;92.62
73101;BME280;61288;53.446;-2.266;2022-10-31T03:41:04;101018.53;;;10.05;93.07
73101;BME280;61288;53.446;-2.266;2022-10-31T03:43:37;101023.78;;;10.04;93.07
73101;BME280;61288;53.446;-2.266;2022-10-31T03:46:05;101024.69;;;10.01;93.42
73101;BME280;61288;53.446;-2.266;2022-10-31T03:48:32;101019.59;;;10.00;93.43
73101;BME280;61288;53.446;-2.266;2022-10-31T03:53:48;101012.56;;;10.03;93.74
73101;BME280;61288;53.446;-2.266;2022-10-31T03:56:26;101012.56;;;10.03;93.70
73101;BME280;61288;53.446;-2.266;2022-10-31T03:59:02;101018.63;;;10.02;93.98
73101;BME280;61288;53.446;-2.266;2022-10-31T04:01:31;101027.09;;;10.07;93.96
73101;BME280;61288;53.446;-2.266;2022-10-31T04:03:58;101028.72;;;10.10;93.89
73101;BME280;61288;53.446;-2.266;2022-10-31T04:06:24;101026.09;;;10.11;93.40
73101;BME280;61288;53.446;-2.266;2022-10-31T04:09:02;101019.03;;;10.17;93.40
73101;BME280;61288;53.446;-2.266;2022-10-31T04:11:34;101025.00;;;10.19;93.52
73101;BME280;61288;53.446;-2.266;2022-10-31T04:14:02;101016.34;;;10.20;93.44
73101;BME280;61288;53.446;-2.266;2022-10-31T04:16:29;101016.25;;;10.21;93.41
73101;BME280;61288;53.446;-2.266;2022-10-31T04:18:55;101012.88;;;10.19;93.13
73101;BME280;61288;53.446;-2.266;2022-10-31T04:21:27;101007.59;;;10.22;93.19
73101;BME280;61288;53.446;-2.266;2022-10-31T04:23:54;101012.78;;;10.22;93.10
73101;BME280;61288;53.446;-2.266;2022-10-31T04:26:20;101005.97;;;10.20;92.91
73101;BME280;61288;53.446;-2.266;2022-10-31T04:28:45;101010.25;;;10.21;92.75
73101;BME280;61288;53.446;-2.266;2022-10-31T04:31:12;101000.03;;;10.16;92.89
73101;BME280;61288;53.446;-2.266;2022-10-31T04:33:38;100987.28;;;10.11;93.10
73101;BME280;61288;53.446;-2.266;2022-10-31T04:36:03;100990.84;;;10.07;93.34
73101;BME280;61288;53.446;-2.266;2022-10-31T04:38:32;100982.03;;;10.13;93.44
73101;BME280;61288;53.446;-2.266;2022-10-31T04:40:58;100974.16;;;10.16;93.36
73101;BME280;61288;53.446;-2.266;2022-10-31T04:43:23;100976.69;;;10.18;93.12
73101;BME280;61288;53.446;-2.266;2022-10-31T04:45:49;100975.84;;;10.17;93.13
73101;BME280;61288;53.446;-2.266;2022-10-31T04:48:15;100977.72;;;10.14;92.95
73101;BME280;61288;53.446;-2.266;2022-10-31T04:50:41;100968.19;;;10.14;93.00
73101;BME280;61288;53.446;-2.266;2022-10-31T04:53:08;100970.66;;;10.17;93.08
73101;BME280;61288;53.446;-2.266;2022-10-31T04:55:35;100971.41;;;10.21;93.04
73101;BME280;61288;53.446;-2.266;2022-10-31T04:58:01;100973.13;;;10.20;92.84
73101;BME280;61288;53.446;-2.266;2022-10-31T05:00:27;100965.44;;;10.19;92.76
73101;BME280;61288;53.446;-2.266;2022-10-31T05:02:54;100959.50;;;10.15;92.83
73101;BME280;61288;53.446;-2.266;2022-10-31T05:05:26;100959.47;;;10.17;93.32
73101;BME280;61288;53.446;-2.266;2022-10-31T05:07:52;100962.00;;;10.18;93.30
73101;BME280;61288;53.446;-2.266;2022-10-31T05:10:21;100960.94;;;10.24;93.54
73101;BME280;61288;53.446;-2.266;2022-10-31T05:12:48;100962.38;;;10.33;93.56
73101;BME280;61288;53.446;-2.266;2022-10-31T05:15:15;100955.31;;;10.36;93.26
73101;BME280;61288;53.446;-2.266;2022-10-31T05:17:42;100956.94;;;10.40;93.45
73101;BME280;61288;53.446;-2.266;2022-10-31T05:20:08;100958.47;;;10.46;93.29
73101;BME280;61288;53.446;-2.266;2022-10-31T05:22:34;100956.63;;;10.50;92.80
73101;BME280;61288;53.446;-2.266;2022-10-31T05:24:59;100948.78;;;10.51;93.36
73101;BME280;61288;53.446;-2.266;2022-10-31T05:27:25;100956.44;;;10.54;93.25
73101;BME280;61288;53.446;-2.266;2022-10-31T05:29:50;100947.72;;;10.57;93.16
73101;BME280;61288;53.446;-2.266;2022-10-31T05:32:17;100956.28;;;10.59;93.35
73101;BME280;61288;53.446;-2.266;2022-10-31T05:34:43;100962.19;;;10.63;93.04
73101;BME280;61288;53.446;-2.266;2022-10-31T05:37:08;100949.97;;;10.66;93.19
73101;BME280;61288;53.446;-2.266;2022-10-31T05:39:34;100952.44;;;10.69;93.30
73101;BME280;61288;53.446;-2.266;2022-10-31T05:41:59;100953.09;;;10.75;93.07
73101;BME280;61288;53.446;-2.266;2022-10-31T05:44:25;100947.84;;;10.78;93.04
73101;BME280;61288;53.446;-2.266;2022-10-31T05:46:50;100955.50;;;10.81;92.79
73101;BME280;61288;53.446;-2.266;2022-10-31T05:49:16;100955.50;;;10.81;92.73
73101;BME280;61288;53.446;-2.266;2022-10-31T05:51:43;100950.19;;;10.84;92.91
73101;BME280;61288;53.446;-2.266;2022-10-31T05:54:09;100938.91;;;10.85;92.91
73101;BME280;61288;53.446;-2.266;2022-10-31T05:56:35;100941.50;;;10.85;92.81
73101;BME280;61288;53.446;-2.266;2022-10-31T05:59:00;100939.69;;;10.87;92.65
73101;BME280;61288;53.446;-2.266;2022-10-31T06:01:26;100927.56;;;10.88;92.80
73101;BME280;61288;53.446;-2.266;2022-10-31T06:03:51;100930.03;;;10.91;92.84
73101;BME280;61288;53.446;-2.266;2022-10-31T06:06:18;100920.53;;;10.91;92.53
73101;BME280;61288;53.446;-2.266;2022-10-31T06:08:45;100920.53;;;10.91;92.29
73101;BME280;61288;53.446;-2.266;2022-10-31T06:11:11;100919.63;;;10.92;92.39
73101;BME280;61288;53.446;-2.266;2022-10-31T06:13:36;100919.59;;;10.94;92.36
73101;BME280;61288;53.446;-2.266;2022-10-31T06:16:02;100928.19;;;10.94;92.36
73101;BME280;61288;53.446;-2.266;2022-10-31T06:18:27;100926.38;;;10.96;92.13
73101;BME280;61288;53.446;-2.266;2022-10-31T06:20:53;100917.66;;;10.99;92.11
73101;BME280;61288;53.446;-2.266;2022-10-31T06:23:18;100914.06;;;11.02;91.95
73101;BME280;61288;53.446;-2.266;2022-10-31T06:25:51;100920.13;;;11.02;92.15
73101;BME280;61288;53.446;-2.266;2022-10-31T06:28:17;100910.69;;;11.00;91.90
73101;BME280;61288;53.446;-2.266;2022-10-31T06:30:45;100908.06;;;11.01;91.88
73101;BME280;61288;53.446;-2.266;2022-10-31T06:33:10;100916.63;;;11.03;91.80
73101;BME280;61288;53.446;-2.266;2022-10-31T06:35:36;100901.97;;;11.02;91.79
73101;BME280;61288;53.446;-2.266;2022-10-31T06:38:01;100908.06;;;11.01;91.63
73101;BME280;61288;53.446;-2.266;2022-10-31T06:40:27;100908.06;;;11.01;91.69
73101;BME280;61288;53.446;-2.266;2022-10-31T06:43:00;100903.72;;;11.02;91.64
73101;BME280;61288;53.446;-2.266;2022-10-31T06:45:26;100913.25;;;11.01;91.54
73101;BME280;61288;53.446;-2.266;2022-10-31T06:47:53;100909.78;;;11.01;91.80
73101;BME280;61288;53.446;-2.266;2022-10-31T06:50:19;100914.03;;;11.03;91.46
73101;BME280;61288;53.446;-2.266;2022-10-31T06:52:56;100907.16;;;11.02;91.51
73101;BME280;61288;53.446;-2.266;2022-10-31T06:55:24;100907.16;;;11.02;91.43
73101;BME280;61288;53.446;-2.266;2022-10-31T06:58:00;100907.16;;;11.02;91.67
73101;BME280;61288;53.446;-2.266;2022-10-31T07:00:28;100913.13;;;11.04;91.19
73101;BME280;61288;53.446;-2.266;2022-10-31T07:03:04;100916.53;;;11.05;91.43
73101;BME280;61288;53.446;-2.266;2022-10-31T07:05:30;100907.88;;;11.06;91.41
73101;BME280;61288;53.446;-2.266;2022-10-31T07:08:00;100906.25;;;11.03;91.30
73101;BME280;61288;53.446;-2.266;2022-10-31T07:10:26;100910.53;;;11.04;90.91
73101;BME280;61288;53.446;-2.266;2022-10-31T07:12:57;100911.34;;;11.05;91.33
73101;BME280;61288;53.446;-2.266;2022-10-31T07:15:27;100922.63;;;11.04;91.22
73101;BME280;61288;53.446;-2.266;2022-10-31T07:17:53;100920.94;;;11.03;91.32
73101;BME280;61288;53.446;-2.266;2022-10-31T07:20:19;100924.53;;;11.00;91.01
73101;BME280;61288;53.446;-2.266;2022-10-31T07:22:45;100915.06;;;10.99;91.33
73101;BME280;61288;53.446;-2.266;2022-10-31T07:25:11;100909.75;;;11.02;91.12
73101;BME280;61288;53.446;-2.266;2022-10-31T07:27:42;100925.22;;;11.04;91.22
73101;BME280;61288;53.446;-2.266;2022-10-31T07:30:09;100926.88;;;11.06;91.30
73101;BME280;61288;53.446;-2.266;2022-10-31T07:32:39;100931.06;;;11.09;90.94
73101;BME280;61288;53.446;-2.266;2022-10-31T07:35:06;100931.06;;;11.09;91.00
73101;BME280;61288;53.446;-2.266;2022-10-31T07:37:32;100927.56;;;11.10;91.07
73101;BME280;61288;53.446;-2.266;2022-10-31T07:39:57;100938.69;;;11.13;90.70
73101;BME280;61288;53.446;-2.266;2022-10-31T07:42:23;100944.66;;;11.16;90.47
73101;BME280;61288;53.446;-2.266;2022-10-31T07:44:48;100945.53;;;11.16;90.62
73101;BME280;61288;53.446;-2.266;2022-10-31T07:47:14;100948.91;;;11.18;90.83
73101;BME280;61288;53.446;-2.266;2022-10-31T07:49:39;100959.31;;;11.17;90.44
73101;BME280;61288;53.446;-2.266;2022-10-31T07:52:08;100959.19;;;11.20;90.42
73101;BME280;61288;53.446;-2.266;2022-10-31T07:54:34;100963.56;;;11.19;90.64
73101;BME280;61288;53.446;-2.266;2022-10-31T07:57:00;100950.50;;;11.21;90.56
73101;BME280;61288;53.446;-2.266;2022-10-31T07:59:25;100945.31;;;11.21;90.55
73101;BME280;61288;53.446;-2.266;2022-10-31T08:01:52;100947.75;;;11.25;90.63
73101;BME280;61288;53.446;-2.266;2022-10-31T08:04:18;100947.63;;;11.29;90.22
73101;BME280;61288;53.446;-2.266;2022-10-31T08:06:44;100954.44;;;11.31;90.48
73101;BME280;61288;53.446;-2.266;2022-10-31T08:09:09;100939.53;;;11.36;89.94
73101;BME280;61288;53.446;-2.266;2022-10-31T08:11:36;100952.31;;;11.41;90.01
73101;BME280;61288;53.446;-2.266;2022-10-31T08:14:02;100948.59;;;11.48;89.74
73101;BME280;61288;53.446;-2.266;2022-10-31T08:16:27;100953.53;;;11.54;89.10
73101;BME280;61288;53.446;-2.266;2022-10-31T08:18:55;100949.03;;;11.58;89.37
73101;BME280;61288;53.446;-2.266;2022-10-31T08:21:22;100954.13;;;11.61;89.01
73101;BME280;61288;53.446;-2.266;2022-10-31T08:23:47;100953.91;;;11.66;88.58
73101;BME280;61288;53.446;-2.266;2022-10-31T08:26:13;100945.09;;;11.70;88.48
73101;BME280;61288;53.446;-2.266;2022-10-31T08:28:39;100938.16;;;11.70;88.86
73101;BME280;61288;53.446;-2.266;2022-10-31T08:31:04;100937.03;;;11.76;88.32
73101;BME280;61288;53.446;-2.266;2022-10-31T08:33:31;100935.03;;;11.83;87.61
73101;BME280;61288;53.446;-2.266;2022-10-31T08:35:58;100927.75;;;11.91;87.32
73101;BME280;61288;53.446;-2.266;2022-10-31T08:38:24;100930.03;;;11.99;86.87
73101;BME280;61288;53.446;-2.266;2022-10-31T08:40:50;100928.91;;;12.06;86.68
73101;BME280;61288;53.446;-2.266;2022-10-31T08:43:17;100935.59;;;12.12;87.01
73101;BME280;61288;53.446;-2.266;2022-10-31T08:45:44;100930.97;;;12.19;86.14
73101;BME280;61288;53.446;-2.266;2022-10-31T08:48:13;100927.97;;;12.28;86.58
73101;BME280;61288;53.446;-2.266;2022-10-31T08:50:40;100938.16;;;12.33;85.55
73101;BME280;61288;53.446;-2.266;2022-10-31T08:53:14;100922.44;;;12.36;85.56
73101;BME280;61288;53.446;-2.266;2022-10-31T08:55:42;100926.50;;;12.41;85.17
73101;BME280;61288;53.446;-2.266;2022-10-31T08:58:14;100930.44;;;12.50;84.50
73101;BME280;61288;53.446;-2.266;2022-10-31T09:00:42;100925.06;;;12.55;84.64
73101;BME280;61288;53.446;-2.266;2022-10-31T09:03:18;100925.69;;;12.60;84.40
73101;BME280;61288;53.446;-2.266;2022-10-31T09:05:44;100910.84;;;12.62;83.93
73101;BME280;61288;53.446;-2.266;2022-10-31T09:08:11;100912.41;;;12.66;84.04
73101;BME280;61288;53.446;-2.266;2022-10-31T09:10:37;100920.81;;;12.71;84.23
73101;BME280;61288;53.446;-2.266;2022-10-31T09:13:09;100922.94;;;12.82;83.57
73101;BME280;61288;53.446;-2.266;2022-10-31T09:15:37;100913.09;;;12.89;82.73
73101;BME280;61288;53.446;-2.266;2022-10-31T09:18:04;100922.59;;;12.90;83.56
73101;BME280;61288;53.446;-2.266;2022-10-31T09:20:30;100917.28;;;12.92;83.28
73101;BME280;61288;53.446;-2.266;2022-10-31T09:22:58;100916.31;;;12.94;82.75
73101;BME280;61288;53.446;-2.266;2022-10-31T09:25:24;100910.28;;;12.94;82.35
73101;BME280;61288;53.446;-2.266;2022-10-31T09:27:50;100917.09;;;12.96;81.88
73101;BME280;61288;53.446;-2.266;2022-10-31T09:30:16;100914.44;;;12.98;82.37
73101;BME280;61288;53.446;-2.266;2022-10-31T09:32:42;100910.06;;;12.98;82.47
73101;BME280;61288;53.446;-2.266;2022-10-31T09:35:08;100915.97;;;13.02;83.34
73101;BME280;61288;53.446;-2.266;2022-10-31T09:37:34;100912.31;;;13.06;82.81
73101;BME280;61288;53.446;-2.266;2022-10-31T09:40:00;100909.69;;;13.06;82.93
73101;BME280;61288;53.446;-2.266;2022-10-31T09:50:25;100893.97;;;13.27;82.34
73101;BME280;61288;53.446;-2.266;2022-10-31T09:53:04;100899.78;;;13.32;82.25
73101;BME280;61288;53.446;-2.266;2022-10-31T09:55:38;100897.25;;;13.31;80.84
73101;BME280;61288;53.446;-2.266;2022-10-31T09:58:07;100891.28;;;13.28;81.71
73101;BME280;61288;53.446;-2.266;2022-10-31T10:00:34;100893.97;;;13.27;81.48
73101;BME280;61288;53.446;-2.266;2022-10-31T10:05:45;100891.69;;;13.38;81.50
73101;BME280;61288;53.446;-2.266;2022-10-31T10:08:17;100891.78;;;13.54;80.15
73101;BME280;61288;53.446;-2.266;2022-10-31T10:22:16;100878.25;;;13.65;79.71
73101;BME280;61288;53.446;-2.266;2022-10-31T10:27:36;100882.69;;;13.63;79.31
73101;BME280;61288;53.446;-2.266;2022-10-31T10:33:21;100885.81;;;13.52;79.24
73101;BME280;61288;53.446;-2.266;2022-10-31T10:36:16;100882.22;;;13.55;79.52
73101;BME280;61288;53.446;-2.266;2022-10-31T10:38:58;100884.75;;;13.56;80.13
73101;BME280;61288;53.446;-2.266;2022-10-31T10:41:29;100891.63;;;13.57;79.17
73101;BME280;61288;53.446;-2.266;2022-10-31T10:43:55;100874.34;;;13.56;79.24
73101;BME280;61288;53.446;-2.266;2022-10-31T10:49:32;100881.38;;;13.54;79.37
73101;BME280;61288;53.446;-2.266;2022-10-31T10:58:14;100866.75;;;13.52;78.04
73101;BME280;61288;53.446;-2.266;2022-10-31T11:00:47;100873.72;;;13.51;78.59
73101;BME280;61288;53.446;-2.266;2022-10-31T11:03:16;100863.47;;;13.48;79.18
73101;BME280;61288;53.446;-2.266;2022-10-31T11:08:23;100857.25;;;13.51;78.89
73101;BME280;61288;53.446;-2.266;2022-10-31T11:10:57;100860.72;;;13.51;79.74
73101;BME280;61288;53.446;-2.266;2022-10-31T11:13:24;100845.91;;;13.52;78.28
73101;BME280;61288;53.446;-2.266;2022-10-31T11:16:11;100848.38;;;13.55;78.82
73101;BME280;61288;53.446;-2.266;2022-10-31T11:21:37;100835.97;;;13.60;77.91
73101;BME280;61288;53.446;-2.266;2022-10-31T11:26:37;100837.88;;;13.56;79.69
73101;BME280;61288;53.446;-2.266;2022-10-31T11:29:04;100836.03;;;13.58;78.93
73101;BME280;61288;53.446;-2.266;2022-10-31T11:31:36;100839.25;;;13.64;78.87
73101;BME280;61288;53.446;-2.266;2022-10-31T11:34:04;100820.88;;;13.67;77.50
73101;BME280;61288;53.446;-2.266;2022-10-31T11:36:32;100832.03;;;13.69;78.75
73101;BME280;61288;53.446;-2.266;2022-10-31T11:39:00;100819.88;;;13.69;77.22
73101;BME280;61288;53.446;-2.266;2022-10-31T11:41:33;100808.59;;;13.69;77.50
73101;BME280;61288;53.446;-2.266;2022-10-31T11:44:10;100809.38;;;13.71;77.50
73101;BME280;61288;53.446;-2.266;2022-10-31T11:47:02;100806.59;;;13.74;76.86
73101;BME280;61288;53.446;-2.266;2022-10-31T11:49:48;100805.53;;;13.78;77.41
73101;BME280;61288;53.446;-2.266;2022-10-31T11:52:23;100804.78;;;13.76;77.67
73101;BME280;61288;53.446;-2.266;2022-10-31T11:57:23;100789.16;;;13.76;77.88
73101;BME280;61288;53.446;-2.266;2022-10-31T11:59:55;100783.84;;;13.78;77.93
73101;BME280;61288;53.446;-2.266;2022-10-31T12:02:22;100782.94;;;13.79;77.32
73101;BME280;61288;53.446;-2.266;2022-10-31T12:05:11;100788.91;;;13.81;77.61
73101;BME280;61288;53.446;-2.266;2022-10-31T12:07:42;100799.31;;;13.81;77.80
73101;BME280;61288;53.446;-2.266;2022-10-31T12:10:34;100790.69;;;13.80;77.97
73101;BME280;61288;53.446;-2.266;2022-10-31T12:15:36;100782.88;;;13.80;77.19
73101;BME280;61288;53.446;-2.266;2022-10-31T12:20:56;100771.53;;;13.81;78.23
73101;BME280;61288;53.446;-2.266;2022-10-31T12:45:54;100751.31;;;13.69;76.50
73101;BME280;61288;53.446;-2.266;2022-10-31T12:59:21;100717.75;;;13.80;76.62
73101;BME280;61288;53.446;-2.266;2022-10-31T13:01:59;100725.41;;;13.83;77.22
73101;BME280;61288;53.446;-2.266;2022-10-31T13:04:37;100710.59;;;13.84;76.77
73101;BME280;61288;53.446;-2.266;2022-10-31T13:07:10;100706.16;;;13.86;76.81
73101;BME280;61288;53.446;-2.266;2022-10-31T13:09:42;100703.53;;;13.86;77.79
73101;BME280;61288;53.446;-2.266;2022-10-31T13:12:11;100702.63;;;13.87;77.67
73101;BME280;61288;53.446;-2.266;2022-10-31T13:14:41;100709.34;;;13.91;77.60
73101;BME280;61288;53.446;-2.266;2022-10-31T13:17:16;100698.84;;;13.93;77.88
73101;BME280;61288;53.446;-2.266;2022-10-31T13:19:46;100692.63;;;13.95;77.89
73101;BME280;61288;53.446;-2.266;2022-10-31T13:22:26;100685.47;;;13.99;77.23
73101;BME280;61288;53.446;-2.266;2022-10-31T13:25:09;100680.28;;;13.99;77.01
73101;BME280;61288;53.446;-2.266;2022-10-31T13:30:15;100673.22;;;14.01;76.75
73101;BME280;61288;53.446;-2.266;2022-10-31T13:38:15;100665.97;;;14.06;77.01
73101;BME280;61288;53.446;-2.266;2022-10-31T13:41:09;100660.09;;;14.03;76.68
73101;BME280;61288;53.446;-2.266;2022-10-31T13:46:36;100639.44;;;13.99;76.97
73101;BME280;61288;53.446;-2.266;2022-10-31T13:49:04;100621.22;;;13.99;77.61
73101;BME280;61288;53.446;-2.266;2022-10-31T13:51:33;100621.28;;;13.98;77.96
73101;BME280;61288;53.446;-2.266;2022-10-31T13:54:05;100622.03;;;14.00;77.98
73101;BME280;61288;53.446;-2.266;2022-10-31T13:56:34;100616.06;;;13.98;76.90
73101;BME280;61288;53.446;-2.266;2022-10-31T14:01:27;100600.63;;;13.95;78.07
73101;BME280;61288;53.446;-2.266;2022-10-31T14:04:19;100603.16;;;13.96;77.68
73101;BME280;61288;53.446;-2.266;2022-10-31T14:06:55;100588.34;;;13.97;77.43
73101;BME280;61288;53.446;-2.266;2022-10-31T14:11:50;100592.91;;;13.93;77.48
73101;BME280;61288;53.446;-2.266;2022-10-31T14:14:17;100603.47;;;13.90;77.68
73101;BME280;61288;53.446;-2.266;2022-10-31T14:16:44;100590.63;;;13.87;77.80
73101;BME280;61288;53.446;-2.266;2022-10-31T14:19:19;100593.41;;;13.84;77.27
73101;BME280;61288;53.446;-2.266;2022-10-31T14:21:48;100590.22;;;13.79;77.47
73101;BME280;61288;53.446;-2.266;2022-10-31T14:24:16;100581.72;;;13.75;77.81
73101;BME280;61288;53.446;-2.266;2022-10-31T14:29:44;100574.25;;;13.69;78.08
73101;BME280;61288;53.446;-2.266;2022-10-31T14:34:42;100563.03;;;13.68;77.53
73101;BME280;61288;53.446;-2.266;2022-10-31T14:51:38;100532.72;;;13.67;76.22
73101;BME280;61288;53.446;-2.266;2022-10-31T14:54:06;100532.03;;;13.64;76.51
73101;BME280;61288;53.446;-2.266;2022-10-31T14:56:35;100533.97;;;13.60;76.42
73101;BME280;61288;53.446;-2.266;2022-10-31T14:59:26;100536.84;;;13.55;77.17
73101;BME280;61288;53.446;-2.266;2022-10-31T15:01:59;100526.59;;;13.52;76.66
73101;BME280;61288;53.446;-2.266;2022-10-31T15:04:27;100509.47;;;13.48;77.26
73101;BME280;61288;53.446;-2.266;2022-10-31T15:09:25;100514.94;;;13.43;75.61
73101;BME280;61288;53.446;-2.266;2022-10-31T15:11:51;100507.16;;;13.42;75.96
73101;BME280;61288;53.446;-2.266;2022-10-31T15:14:29;100497.78;;;13.39;76.79
73101;BME280;61288;53.446;-2.266;2022-10-31T15:16:59;100503.97;;;13.37;76.35
73101;BME280;61288;53.446;-2.266;2022-10-31T15:19:29;100491.88;;;13.36;77.08
73101;BME280;61288;53.446;-2.266;2022-10-31T15:21:57;100490.16;;;13.36;76.26
73101;BME280;61288;53.446;-2.266;2022-10-31T15:24:26;100490.16;;;13.36;76.72
73101;BME280;61288;53.446;-2.266;2022-10-31T15:26:55;100492.00;;;13.34;76.05